Aérodrome :
LOGIN :

S'inscrire | Disclaimer

   EN    FR    IT 

 










Légende :    VFR   VFR Marginal   IFR   IFR Intensif   IFR Très Intensif
Visi : 
Plafond : 
>= 8 km
>= 3000ft
5 à 8 km
1000 à 3000 ft
1500m à 5 km
500 à 1000 ft
800 à 1500m
200 à 500 ft
< 800m
< 200 ft
Symboles :   Orages  Brouillard  Fortes neiges  Fortes précipitations  Vent > 20 kt
SIGMETs :   Divers  Orages  Givrage  Turbulence  Onde Orograph.  Cendres Volcan.







- Altitude de l'aérodrome : 17 ft
- Code IATA : MPL
- Voir les cartes d'approche


LFMT - Montpellier Méditerranée

DERNIER METAR :
  • 181730Z AUTO 26011KT CAVOK 11/06 Q1019 NOSIG

METARs EXPIRÉS :
  • 181700Z AUTO 27012KT CAVOK 12/06 Q1019 NOSIG
  • 181630Z AUTO 28013KT CAVOK 12/06 Q1019 NOSIG
  • 181600Z AUTO 28015KT CAVOK 13/06 Q1019 NOSIG
  • 181530Z AUTO 28015KT CAVOK 14/06 Q1019 NOSIG
  • 181500Z AUTO 28019KT CAVOK 14/05 Q1019 NOSIG

TAF TAF LFMT
Valide du 18 à 15h jusqu'au 19 à 15h UTC


181400Z 1815/1915 27014KT CAVOK
BECMG 1909/1911 33015KT
ATIS : +33 4 67 13 11 70
Pas de NOTAMs connus pour ce terrain.
5 SIGMETs publiés pour la FIR Marseille (LFMM) :
 
Onde orographique forte
LFMM SIGMET 18 VALID 181800/182200 LFPW
LFMM MARSEILLE FIR/UIR SEV MTW FCST E OF LINE N4115 E00900 - N4330 E00830 SFC/FL300 STNR NC=
Onde orographique forte
LFMM SIGMET 17 VALID 181800/182200 LFPW
LFMM MARSEILLE FIR/UIR SEV MTW FCST WI N4530 E00700 - N4400 E00700 - N4400 E00715 - N4330 E00630 - N4500 E00630 - N4530 E00700 SFC/FL250 STNR NC=
Turbulence forte
LFMM SIGMET 16 VALID 181700/182100 LFPW
LFMM MARSEILLE FIR/UIR SEV TURB FCST WI N4345 E00800 - N4315 E00945 - N4115 E00945 - N4115 E00845 - N4300 E00600 - N4345 E00645 - N4345 E00800 SFC/FL040 STNR NC=
Onde orographique forte
LFMM SIGMET 15 VALID 181500/181800 LFPW
LFMM MARSEILLE FIR/UIR SEV MTW FCST E OF LINE N4115 E00900 - N4330 E00830 SFC/FL350 STNR NC=
Onde orographique forte
LFMM SIGMET 14 VALID 181500/181800 LFPW
LFMM MARSEILLE FIR/UIR SEV MTW FCST WI N4530 E00700 - N4400 E00700 - N4400 E00730 - N4330 E00630 - N4500 E00615 - N4530 E00700 SFC/FL300 STNR NC=



MET'MAP, la Météo Aéronautique d'un coup d'oeil ! - Copyright ORBIFLY Décembre 2007 - Disclaimer

ORBIFLY MET'MAP TEAM :

Programmation & Développement : Alexandra Zaïnal
Conception & Développement : Baudouin d'Aumeries
Co-Programmation & Développement : Marc-Olivier Méhu
Soutien technique & logistique : Manuel Goepfert

Contact : metmap@orbifly.com




SOURCES & CREDITS :

   NOAA